Time;durP1;ratioP1;P1;durP2;ratioP2;P2;SDS_P1;SDS_P2;PMS_P1;PMS_P2;Temp;Humidity;BMP_temperature;BMP_pressure;BME280_temperature;BME280_humidity;BME280_pressure;Samples;Min_cycle;Max_cycle;Signal;HPM_P1;HPM_P2
2021/07/14 00:06:10;;;;;;;15.90;14.40;;;23.10;76.10;;;;;;20994179;28;20086;-20
2021/07/14 00:26:29;;;;;;;15.75;14.35;;;23.20;75.90;;;;;;20984746;22;20042;-19
2021/07/14 00:36:30;;;;;;;15.63;14.23;;;23.20;76.30;;;;;;20788484;28;20036;-19
2021/07/14 00:46:32;;;;;;;16.27;14.52;;;23.20;76.10;;;;;;20755776;28;20061;-21
2021/07/14 00:56:33;;;;;;;16.23;14.77;;;23.20;76.40;;;;;;20742773;28;20022;-20
2021/07/14 01:06:41;;;;;;;16.00;14.50;;;23.10;76.10;;;;;;20754708;28;20595;-20
2021/07/14 01:16:45;;;;;;;16.05;14.65;;;23.10;76.00;;;;;;20741046;28;20455;-20
2021/07/14 01:27:09;;;;;;;15.23;13.82;;;23.10;75.60;;;;;;20741204;28;20026;-20
2021/07/14 01:37:13;;;;;;;16.88;15.07;;;23.10;75.80;;;;;;20760449;28;20021;-20
2021/07/14 01:47:15;;;;;;;13.65;12.35;;;23.10;75.50;;;;;;20741599;28;20496;-21
2021/07/14 01:57:18;;;;;;;16.83;15.27;;;23.10;75.40;;;;;;20748586;28;20114;-21
2021/07/14 02:07:27;;;;;;;16.30;14.70;;;23.00;76.20;;;;;;20738463;28;20022;-20
2021/07/14 02:17:33;;;;;;;16.85;15.20;;;23.10;75.90;;;;;;20738521;28;20499;-21
2021/07/14 02:27:33;;;;;;;17.27;15.40;;;23.00;76.30;;;;;;20738017;28;20453;-20
2021/07/14 02:37:41;;;;;;;17.08;14.98;;;23.10;76.10;;;;;;20736784;28;20039;-20
2021/07/14 02:47:42;;;;;;;21.93;17.20;;;23.00;75.80;;;;;;20737785;28;20030;-19
2021/07/14 02:57:45;;;;;;;20.13;18.00;;;23.00;76.30;;;;;;20736576;28;20091;-20
2021/07/14 03:07:48;;;;;;;19.00;14.55;;;22.90;76.40;;;;;;20741215;28;20029;-20
2021/07/14 03:17:51;;;;;;;19.38;17.23;;;23.00;76.40;;;;;;20760049;28;20036;-20
2021/07/14 03:27:52;;;;;;;19.15;16.05;;;22.90;76.50;;;;;;20767438;28;20060;-19
2021/07/14 03:37:57;;;;;;;19.55;16.08;;;22.90;76.40;;;;;;20753811;28;20034;-19
2021/07/14 03:47:58;;;;;;;22.08;18.23;;;22.90;76.40;;;;;;20757493;28;20039;-19
2021/07/14 03:57:59;;;;;;;19.92;17.83;;;22.90;76.40;;;;;;20760003;28;20108;-19
2021/07/14 04:08:01;;;;;;;21.20;18.85;;;22.90;76.00;;;;;;20758703;28;20507;-20
2021/07/14 04:18:01;;;;;;;23.08;20.77;;;22.90;76.30;;;;;;20753756;28;20088;-20
2021/07/14 04:28:02;;;;;;;27.42;22.58;;;22.90;76.40;;;;;;20755022;28;20025;-20
2021/07/14 04:38:03;;;;;;;28.63;22.88;;;22.90;76.50;;;;;;20731586;28;20079;-21
2021/07/14 04:48:05;;;;;;;30.67;22.85;;;22.90;76.40;;;;;;20750448;28;20561;-20
2021/07/14 04:58:06;;;;;;;31.40;23.60;;;22.80;76.40;;;;;;20752234;28;20089;-21
2021/07/14 05:08:06;;;;;;;31.88;25.67;;;22.90;76.50;;;;;;20733131;28;20081;-19
2021/07/14 05:18:07;;;;;;;31.58;24.70;;;22.80;76.40;;;;;;20748335;28;20487;-20
2021/07/14 05:28:07;;;;;;;28.23;25.15;;;22.90;76.50;;;;;;20770315;28;20096;-19
2021/07/14 05:38:08;;;;;;;29.23;26.27;;;22.80;76.70;;;;;;20759372;28;20040;-20
2021/07/14 05:48:09;;;;;;;30.52;24.40;;;22.80;76.70;;;;;;20739656;28;20113;-21
2021/07/14 05:58:11;;;;;;;32.70;27.48;;;22.90;76.80;;;;;;20739728;28;20105;-20
2021/07/14 06:08:11;;;;;;;32.55;27.45;;;22.90;76.90;;;;;;20739252;28;20037;-19
2021/07/14 06:18:12;;;;;;;33.08;27.55;;;22.90;76.80;;;;;;20737516;28;20101;-19
2021/07/14 06:28:13;;;;;;;36.20;27.05;;;22.80;77.30;;;;;;20735108;28;20408;-20
2021/07/14 06:38:13;;;;;;;32.70;25.50;;;22.90;77.30;;;;;;20732838;28;20021;-19
2021/07/14 06:48:15;;;;;;;29.85;24.10;;;22.90;76.70;;;;;;20751056;28;20109;-20
2021/07/14 06:58:16;;;;;;;31.77;23.60;;;23.00;76.50;;;;;;20752294;28;20030;-19
2021/07/14 07:08:16;;;;;;;29.85;24.30;;;22.90;77.00;;;;;;20750912;28;20048;-21
2021/07/14 07:18:19;;;;;;;26.33;23.17;;;22.90;76.60;;;;;;20757278;28;20553;-21
2021/07/14 07:28:22;;;;;;;25.05;22.45;;;23.00;76.60;;;;;;20750282;28;20480;-20
2021/07/14 07:38:23;;;;;;;24.95;21.38;;;23.00;76.50;;;;;;20758271;28;20030;-20
2021/07/14 07:48:24;;;;;;;20.73;18.60;;;23.00;76.20;;;;;;20749812;28;20026;-20
2021/07/14 07:58:25;;;;;;;21.02;18.75;;;23.00;76.00;;;;;;20747266;28;20033;-21
2021/07/14 08:08:26;;;;;;;20.95;18.85;;;23.00;76.00;;;;;;20747153;28;20056;-20
2021/07/14 08:18:26;;;;;;;20.50;17.93;;;23.00;75.80;;;;;;20761565;28;20488;-19
2021/07/14 08:28:27;;;;;;;19.58;17.67;;;23.00;75.60;;;;;;20758291;28;20045;-20
2021/07/14 08:38:28;;;;;;;19.67;17.33;;;23.00;75.70;;;;;;20751341;28;20083;-20
2021/07/14 08:48:29;;;;;;;19.48;17.52;;;23.00;75.30;;;;;;20753760;28;20034;-20
2021/07/14 08:58:29;;;;;;;18.63;16.77;;;23.00;75.40;;;;;;20759569;28;20090;-20
2021/07/14 09:08:30;;;;;;;17.47;15.87;;;23.10;75.40;;;;;;20783835;28;20065;-21
2021/07/14 09:18:31;;;;;;;19.13;17.13;;;23.10;75.40;;;;;;20765098;28;20025;-19
2021/07/14 09:28:37;;;;;;;17.75;15.85;;;23.10;75.30;;;;;;20766571;28;20033;-20
2021/07/14 09:38:41;;;;;;;16.58;15.07;;;23.10;75.20;;;;;;20763440;28;20036;-21
2021/07/14 09:48:44;;;;;;;18.38;16.77;;;23.10;75.10;;;;;;20765665;28;20495;-19
2021/07/14 09:58:44;;;;;;;18.33;15.55;;;23.10;75.10;;;;;;20753764;28;20033;-20
2021/07/14 10:08:47;;;;;;;16.60;15.10;;;23.10;75.10;;;;;;20755360;28;20029;-21
2021/07/14 10:19:16;;;;;;;15.88;14.35;;;23.10;75.00;;;;;;20752776;28;20815;-19
2021/07/14 10:29:19;;;;;;;16.98;14.20;;;23.10;75.00;;;;;;20740303;28;20050;-19
2021/07/14 10:39:25;;;;;;;18.05;15.13;;;23.10;75.20;;;;;;20737535;28;20045;-20
2021/07/14 10:49:26;;;;;;;17.63;15.18;;;23.20;76.10;;;;;;20685811;28;20445;-21
2021/07/14 10:59:27;;;;;;;16.57;14.90;;;23.20;76.00;;;;;;20689419;28;20034;-21
2021/07/14 11:09:39;;;;;;;18.27;13.95;;;23.20;76.10;;;;;;20749043;28;20999;-20
2021/07/14 11:19:45;;;;;;;16.13;14.27;;;23.30;76.20;;;;;;20749144;28;20034;-20
2021/07/14 11:29:46;;;;;;;24.83;14.93;;;23.30;76.10;;;;;;20752685;28;20033;-23
2021/07/14 11:39:47;;;;;;;15.45;13.77;;;23.30;76.20;;;;;;20751520;28;20061;-21
2021/07/14 11:49:47;;;;;;;16.95;12.63;;;23.40;76.40;;;;;;20751420;28;20041;-21
2021/07/14 11:59:48;;;;;;;14.83;13.33;;;23.40;76.10;;;;;;20748766;28;20022;-20
2021/07/14 12:09:49;;;;;;;12.95;11.75;;;23.40;76.00;;;;;;20748444;28;20527;-20
2021/07/14 12:19:55;;;;;;;13.20;11.77;;;23.40;76.10;;;;;;20746148;28;20041;-20
2021/07/14 12:29:57;;;;;;;14.00;11.82;;;23.40;76.10;;;;;;20747717;28;20091;-19
2021/07/14 12:39:58;;;;;;;13.60;12.27;;;23.40;76.00;;;;;;20751836;28;20501;-21
2021/07/14 12:49:58;;;;;;;13.98;12.70;;;23.40;76.00;;;;;;20746233;28;20029;-20
2021/07/14 13:00:05;;;;;;;15.35;11.60;;;23.40;76.00;;;;;;20746469;28;20025;-21
2021/07/14 13:10:07;;;;;;;14.98;12.95;;;23.30;76.60;;;;;;20742143;28;20448;-21
2021/07/14 13:20:18;;;;;;;15.07;11.10;;;23.30;76.90;;;;;;20723160;28;20049;-21
2021/07/14 13:30:32;;;;;;;20.65;12.10;;;23.30;77.00;;;;;;20747871;28;20399;-20
2021/07/14 13:40:33;;;;;;;15.57;11.90;;;23.40;77.70;;;;;;20762246;28;20448;-20
2021/07/14 13:50:35;;;;;;;17.97;12.17;;;23.40;77.30;;;;;;20739111;28;20030;-21
2021/07/14 14:00:37;;;;;;;15.05;10.20;;;23.40;77.30;;;;;;20739926;28;20122;-20
2021/07/14 14:10:42;;;;;;;17.42;10.23;;;23.40;77.20;;;;;;20739570;28;20116;-20
2021/07/14 14:20:43;;;;;;;13.63;9.55;;;23.30;77.50;;;;;;20739612;28;20026;-21
2021/07/14 14:30:44;;;;;;;17.75;10.95;;;23.40;77.40;;;;;;20744443;28;20605;-21
2021/07/14 14:40:48;;;;;;;11.48;8.82;;;23.40;77.40;;;;;;20746065;28;20026;-20
2021/07/14 14:50:51;;;;;;;29.98;10.32;;;23.40;77.40;;;;;;20741144;28;20085;-19
2021/07/14 15:00:51;;;;;;;16.88;9.23;;;23.50;77.20;;;;;;20735467;28;20048;-20
2021/07/14 15:10:52;;;;;;;16.08;8.52;;;23.50;77.40;;;;;;20703094;28;20043;-20
2021/07/14 15:20:53;;;;;;;16.10;8.60;;;23.40;77.20;;;;;;20738470;28;20064;-20
2021/07/14 15:30:54;;;;;;;21.00;8.85;;;23.40;77.60;;;;;;20755806;28;20476;-21
2021/07/14 15:40:55;;;;;;;13.20;7.97;;;23.40;77.60;;;;;;20757096;28;20034;-21
2021/07/14 15:50:56;;;;;;;19.92;8.73;;;23.50;77.90;;;;;;20749953;28;20041;-20
2021/07/14 16:00:57;;;;;;;16.63;7.55;;;23.40;77.60;;;;;;20747644;28;20038;-20
2021/07/14 16:10:59;;;;;;;15.07;7.15;;;23.40;77.30;;;;;;20765910;28;20057;-20
2021/07/14 16:21:00;;;;;;;15.38;8.02;;;23.40;77.20;;;;;;20744836;28;20054;-20
2021/07/14 16:31:01;;;;;;;10.23;6.53;;;23.40;77.20;;;;;;20739518;28;20030;-20
2021/07/14 16:41:02;;;;;;;11.93;6.70;;;23.40;77.50;;;;;;20726617;28;20061;-21
2021/07/14 16:51:03;;;;;;;10.07;6.78;;;23.40;77.50;;;;;;20743585;28;20029;-21
2021/07/14 17:01:08;;;;;;;8.90;5.18;;;23.40;76.90;;;;;;20744958;28;20029;-21
2021/07/14 17:11:10;;;;;;;7.65;3.67;;;23.30;75.70;;;;;;20745660;28;20451;-20
2021/07/14 17:21:10;;;;;;;10.75;3.83;;;23.30;74.80;;;;;;20723726;28;20032;-21
2021/07/14 17:31:11;;;;;;;23.73;5.90;;;23.30;74.70;;;;;;20743042;28;20034;-22
2021/07/14 17:41:14;;;;;;;12.18;4.45;;;23.30;75.00;;;;;;20741374;28;20029;-20
2021/07/14 17:51:15;;;;;;;4.30;2.53;;;23.30;75.00;;;;;;20740809;28;20026;-20
2021/07/14 18:01:16;;;;;;;7.07;3.03;;;23.30;74.70;;;;;;20739959;28;20064;-19
2021/07/14 18:11:18;;;;;;;4.03;1.80;;;23.20;75.00;;;;;;20738435;28;20029;-20
2021/07/14 18:21:19;;;;;;;8.25;1.60;;;23.20;75.40;;;;;;20742421;28;20040;-20
2021/07/14 18:31:20;;;;;;;3.45;2.08;;;23.10;75.30;;;;;;20896274;22;20040;-19
2021/07/14 18:41:24;;;;;;;4.13;1.40;;;23.10;75.30;;;;;;21079454;28;20065;-19
2021/07/14 18:51:25;;;;;;;3.88;1.33;;;23.00;74.80;;;;;;21082150;28;20032;-19
2021/07/14 19:01:26;;;;;;;6.35;1.52;;;23.00;73.70;;;;;;21082627;28;20035;-19
2021/07/14 19:11:26;;;;;;;2.58;1.00;;;23.00;72.20;;;;;;21099346;28;20103;-20
2021/07/14 19:21:27;;;;;;;2.30;0.80;;;22.90;69.70;;;;;;21082906;28;20048;-19
2021/07/14 19:31:27;;;;;;;2.33;0.80;;;22.80;69.40;;;;;;21078287;28;20425;-19
2021/07/14 19:41:28;;;;;;;3.30;1.50;;;22.80;69.90;;;;;;21075585;28;20043;-19
2021/07/14 19:51:29;;;;;;;2.05;1.10;;;22.70;69.80;;;;;;21054438;28;20111;-19
2021/07/14 20:01:29;;;;;;;1.67;1.15;;;22.70;69.50;;;;;;21056430;28;20107;-19
2021/07/14 20:11:30;;;;;;;3.17;1.10;;;22.70;70.30;;;;;;21052764;28;20089;-19
2021/07/14 20:21:31;;;;;;;2.75;0.90;;;22.70;71.00;;;;;;21039512;28;20067;-19
2021/07/14 20:31:31;;;;;;;2.70;1.23;;;22.60;70.10;;;;;;21044163;28;20421;-19
2021/07/14 20:41:32;;;;;;;2.30;1.00;;;22.60;70.10;;;;;;21056474;28;20024;-19
2021/07/14 20:51:33;;;;;;;1.55;1.05;;;22.60;70.10;;;;;;21061343;28;20494;-19
2021/07/14 21:01:35;;;;;;;2.70;1.48;;;22.70;71.10;;;;;;21057145;28;20032;-19
2021/07/14 21:11:37;;;;;;;1.80;1.17;;;22.70;71.00;;;;;;21051818;28;20047;-19
2021/07/14 21:21:38;;;;;;;2.15;1.42;;;22.60;70.90;;;;;;21042227;28;20051;-19
2021/07/14 21:31:38;;;;;;;1.67;1.20;;;22.60;69.10;;;;;;21053528;28;20032;-19
2021/07/14 21:41:39;;;;;;;2.65;0.88;;;22.60;70.10;;;;;;21048463;28;20119;-20
2021/07/14 21:51:39;;;;;;;1.73;1.02;;;22.60;69.30;;;;;;21031136;28;20027;-20
2021/07/14 22:01:40;;;;;;;4.03;1.23;;;22.50;69.30;;;;;;21041518;28;20062;-19
2021/07/14 22:11:42;;;;;;;2.83;1.47;;;22.60;69.60;;;;;;21048304;28;20428;-19
2021/07/14 22:21:43;;;;;;;5.53;1.23;;;22.50;68.90;;;;;;21052270;28;20489;-19
2021/07/14 22:31:47;;;;;;;7.03;1.60;;;22.50;68.80;;;;;;21056435;28;20024;-19
2021/07/14 22:41:51;;;;;;;2.17;1.30;;;22.50;69.70;;;;;;21062379;28;20149;-19
2021/07/14 22:51:52;;;;;;;3.78;1.50;;;22.50;68.80;;;;;;21061524;28;20036;-19
2021/07/14 23:01:52;;;;;;;5.45;1.33;;;22.40;67.50;;;;;;21067095;28;20113;-19
2021/07/14 23:11:53;;;;;;;6.00;2.08;;;22.40;66.90;;;;;;21066481;28;20020;-19
2021/07/14 23:21:53;;;;;;;3.40;1.15;;;22.40;67.70;;;;;;21062532;28;20020;-19
2021/07/14 23:31:54;;;;;;;3.25;1.30;;;22.40;67.00;;;;;;21082150;28;20043;-19
2021/07/14 23:41:54;;;;;;;3.95;1.10;;;22.40;67.50;;;;;;21081521;28;20181;-19
2021/07/14 23:51:55;;;;;;;2.10;1.27;;;22.30;66.50;;;;;;21079910;28;20108;-19
